sensor_id;sensor_type;location;lat;lon;timestamp;temperature;humidity
81140;SHT31;70624;51.978;5.656;2024-03-08T00:00:15;6.5;62.2
81140;SHT31;70624;51.978;5.656;2024-03-08T00:02:45;6.5;62.3
81140;SHT31;70624;51.978;5.656;2024-03-08T00:05:14;6.5;62.2
81140;SHT31;70624;51.978;5.656;2024-03-08T00:07:44;6.4;62.3
81140;SHT31;70624;51.978;5.656;2024-03-08T00:10:13;6.4;62.2
81140;SHT31;70624;51.978;5.656;2024-03-08T00:12:44;6.4;62.1
81140;SHT31;70624;51.978;5.656;2024-03-08T00:15:14;6.4;62.2
81140;SHT31;70624;51.978;5.656;2024-03-08T00:17:44;6.4;62.0
81140;SHT31;70624;51.978;5.656;2024-03-08T00:20:12;6.3;61.9
81140;SHT31;70624;51.978;5.656;2024-03-08T00:22:41;6.3;61.9
81140;SHT31;70624;51.978;5.656;2024-03-08T00:25:10;6.3;62.2
81140;SHT31;70624;51.978;5.656;2024-03-08T00:27:38;6.3;61.7
81140;SHT31;70624;51.978;5.656;2024-03-08T00:30:08;6.2;62.0
81140;SHT31;70624;51.978;5.656;2024-03-08T00:32:37;6.2;61.9
81140;SHT31;70624;51.978;5.656;2024-03-08T00:35:06;6.2;62.0
81140;SHT31;70624;51.978;5.656;2024-03-08T00:37:35;6.2;62.0
81140;SHT31;70624;51.978;5.656;2024-03-08T00:40:04;6.2;61.9
81140;SHT31;70624;51.978;5.656;2024-03-08T00:42:33;6.1;61.9
81140;SHT31;70624;51.978;5.656;2024-03-08T00:45:01;6.1;61.9
81140;SHT31;70624;51.978;5.656;2024-03-08T00:47:30;6.1;62.0
81140;SHT31;70624;51.978;5.656;2024-03-08T00:49:58;6.1;62.1
81140;SHT31;70624;51.978;5.656;2024-03-08T00:52:30;6.0;62.2
81140;SHT31;70624;51.978;5.656;2024-03-08T00:55:00;6.0;62.3
81140;SHT31;70624;51.978;5.656;2024-03-08T00:57:28;6.0;62.0
81140;SHT31;70624;51.978;5.656;2024-03-08T00:59:57;6.0;61.9
81140;SHT31;70624;51.978;5.656;2024-03-08T01:02:25;6.0;62.0
81140;SHT31;70624;51.978;5.656;2024-03-08T01:04:55;6.0;61.9
81140;SHT31;70624;51.978;5.656;2024-03-08T01:07:24;5.9;61.7
81140;SHT31;70624;51.978;5.656;2024-03-08T01:09:52;5.9;62.0
81140;SHT31;70624;51.978;5.656;2024-03-08T01:12:21;5.9;62.0
81140;SHT31;70624;51.978;5.656;2024-03-08T01:14:51;5.9;61.7
81140;SHT31;70624;51.978;5.656;2024-03-08T01:17:19;5.9;61.3
81140;SHT31;70624;51.978;5.656;2024-03-08T01:19:48;5.8;61.5
81140;SHT31;70624;51.978;5.656;2024-03-08T01:22:16;5.8;61.7
81140;SHT31;70624;51.978;5.656;2024-03-08T01:24:44;5.8;61.4
81140;SHT31;70624;51.978;5.656;2024-03-08T01:27:13;5.8;61.5
81140;SHT31;70624;51.978;5.656;2024-03-08T01:29:42;5.7;61.7
81140;SHT31;70624;51.978;5.656;2024-03-08T01:32:10;5.7;61.8
81140;SHT31;70624;51.978;5.656;2024-03-08T01:34:38;5.7;61.3
81140;SHT31;70624;51.978;5.656;2024-03-08T01:37:07;5.7;61.4
81140;SHT31;70624;51.978;5.656;2024-03-08T01:39:37;5.7;62.0
81140;SHT31;70624;51.978;5.656;2024-03-08T01:42:06;5.6;61.5
81140;SHT31;70624;51.978;5.656;2024-03-08T01:44:34;5.6;61.2
81140;SHT31;70624;51.978;5.656;2024-03-08T01:47:03;5.6;61.2
81140;SHT31;70624;51.978;5.656;2024-03-08T01:49:31;5.6;60.9
81140;SHT31;70624;51.978;5.656;2024-03-08T01:52:00;5.6;61.0
81140;SHT31;70624;51.978;5.656;2024-03-08T01:54:30;5.5;60.9
81140;SHT31;70624;51.978;5.656;2024-03-08T01:56:59;5.5;61.1
81140;SHT31;70624;51.978;5.656;2024-03-08T01:59:29;5.5;61.3
81140;SHT31;70624;51.978;5.656;2024-03-08T02:02:01;5.5;61.2
81140;SHT31;70624;51.978;5.656;2024-03-08T02:04:30;5.5;60.7
81140;SHT31;70624;51.978;5.656;2024-03-08T02:06:58;5.4;60.7
81140;SHT31;70624;51.978;5.656;2024-03-08T02:09:27;5.4;60.5
81140;SHT31;70624;51.978;5.656;2024-03-08T02:11:57;5.4;60.5
81140;SHT31;70624;51.978;5.656;2024-03-08T02:14:25;5.4;60.6
81140;SHT31;70624;51.978;5.656;2024-03-08T02:16:54;5.4;60.6
81140;SHT31;70624;51.978;5.656;2024-03-08T02:19:24;5.4;60.4
81140;SHT31;70624;51.978;5.656;2024-03-08T02:21:53;5.3;60.4
81140;SHT31;70624;51.978;5.656;2024-03-08T02:24:23;5.3;60.3
81140;SHT31;70624;51.978;5.656;2024-03-08T02:26:52;5.3;60.2
81140;SHT31;70624;51.978;5.656;2024-03-08T02:29:21;5.3;60.5
81140;SHT31;70624;51.978;5.656;2024-03-08T02:31:50;5.3;60.2
81140;SHT31;70624;51.978;5.656;2024-03-08T02:34:19;5.3;60.3
81140;SHT31;70624;51.978;5.656;2024-03-08T02:36:48;5.3;60.1
81140;SHT31;70624;51.978;5.656;2024-03-08T02:39:16;5.3;60.0
81140;SHT31;70624;51.978;5.656;2024-03-08T02:41:46;5.2;59.9
81140;SHT31;70624;51.978;5.656;2024-03-08T02:44:14;5.2;60.1
81140;SHT31;70624;51.978;5.656;2024-03-08T02:46:43;5.2;60.0
81140;SHT31;70624;51.978;5.656;2024-03-08T02:49:11;5.2;60.0
81140;SHT31;70624;51.978;5.656;2024-03-08T02:51:39;5.2;60.0
81140;SHT31;70624;51.978;5.656;2024-03-08T02:54:08;5.2;60.1
81140;SHT31;70624;51.978;5.656;2024-03-08T02:56:36;5.2;59.9
81140;SHT31;70624;51.978;5.656;2024-03-08T02:59:04;5.1;59.7
81140;SHT31;70624;51.978;5.656;2024-03-08T03:01:33;5.1;60.1
81140;SHT31;70624;51.978;5.656;2024-03-08T03:04:03;5.1;60.2
81140;SHT31;70624;51.978;5.656;2024-03-08T03:06:32;5.1;60.3
81140;SHT31;70624;51.978;5.656;2024-03-08T03:09:00;5.1;60.1
81140;SHT31;70624;51.978;5.656;2024-03-08T03:11:28;5.1;60.0
81140;SHT31;70624;51.978;5.656;2024-03-08T03:13:58;5.1;60.2
81140;SHT31;70624;51.978;5.656;2024-03-08T03:16:27;5.0;60.2
81140;SHT31;70624;51.978;5.656;2024-03-08T03:18:55;5.0;60.0
81140;SHT31;70624;51.978;5.656;2024-03-08T03:21:28;5.0;60.2
81140;SHT31;70624;51.978;5.656;2024-03-08T03:23:58;5.0;60.1
81140;SHT31;70624;51.978;5.656;2024-03-08T03:26:26;5.0;60.2
81140;SHT31;70624;51.978;5.656;2024-03-08T03:28:55;4.9;60.5
81140;SHT31;70624;51.978;5.656;2024-03-08T03:31:23;4.9;60.4
81140;SHT31;70624;51.978;5.656;2024-03-08T03:33:52;4.9;60.2
81140;SHT31;70624;51.978;5.656;2024-03-08T03:36:20;4.9;60.4
81140;SHT31;70624;51.978;5.656;2024-03-08T03:38:51;4.8;60.7
81140;SHT31;70624;51.978;5.656;2024-03-08T03:41:24;4.8;60.7
81140;SHT31;70624;51.978;5.656;2024-03-08T03:43:53;4.8;60.6
81140;SHT31;70624;51.978;5.656;2024-03-08T03:46:21;4.8;60.9
81140;SHT31;70624;51.978;5.656;2024-03-08T03:48:49;4.8;60.8
81140;SHT31;70624;51.978;5.656;2024-03-08T03:51:18;4.8;60.9
81140;SHT31;70624;51.978;5.656;2024-03-08T03:53:47;4.7;60.8
81140;SHT31;70624;51.978;5.656;2024-03-08T03:56:18;4.7;60.9
81140;SHT31;70624;51.978;5.656;2024-03-08T03:58:47;4.7;61.0
81140;SHT31;70624;51.978;5.656;2024-03-08T04:01:17;4.7;61.0
81140;SHT31;70624;51.978;5.656;2024-03-08T04:03:46;4.7;61.1
81140;SHT31;70624;51.978;5.656;2024-03-08T04:06:14;4.7;60.8
81140;SHT31;70624;51.978;5.656;2024-03-08T04:08:45;4.7;61.0
81140;SHT31;70624;51.978;5.656;2024-03-08T04:11:13;4.7;60.9
81140;SHT31;70624;51.978;5.656;2024-03-08T04:13:42;4.6;60.9
81140;SHT31;70624;51.978;5.656;2024-03-08T04:16:11;4.6;61.1
81140;SHT31;70624;51.978;5.656;2024-03-08T04:18:39;4.6;61.0
81140;SHT31;70624;51.978;5.656;2024-03-08T04:21:07;4.6;61.2
81140;SHT31;70624;51.978;5.656;2024-03-08T04:23:36;4.6;61.3
81140;SHT31;70624;51.978;5.656;2024-03-08T04:26:04;4.6;61.3
81140;SHT31;70624;51.978;5.656;2024-03-08T04:28:35;4.6;61.1
81140;SHT31;70624;51.978;5.656;2024-03-08T04:31:04;4.6;61.5
81140;SHT31;70624;51.978;5.656;2024-03-08T04:33:33;4.6;61.4
81140;SHT31;70624;51.978;5.656;2024-03-08T04:36:02;4.6;61.3
81140;SHT31;70624;51.978;5.656;2024-03-08T04:38:31;4.6;61.5
81140;SHT31;70624;51.978;5.656;2024-03-08T04:40:59;4.5;61.5
81140;SHT31;70624;51.978;5.656;2024-03-08T04:43:28;4.5;61.4
81140;SHT31;70624;51.978;5.656;2024-03-08T04:45:57;4.5;61.3
81140;SHT31;70624;51.978;5.656;2024-03-08T04:48:25;4.5;61.2
81140;SHT31;70624;51.978;5.656;2024-03-08T04:50:54;4.5;61.2
81140;SHT31;70624;51.978;5.656;2024-03-08T04:53:23;4.5;61.2
81140;SHT31;70624;51.978;5.656;2024-03-08T04:55:52;4.5;61.5
81140;SHT31;70624;51.978;5.656;2024-03-08T04:58:21;4.5;61.4
81140;SHT31;70624;51.978;5.656;2024-03-08T05:00:49;4.5;61.5
81140;SHT31;70624;51.978;5.656;2024-03-08T05:03:18;4.5;61.6
81140;SHT31;70624;51.978;5.656;2024-03-08T05:05:47;4.5;61.4
81140;SHT31;70624;51.978;5.656;2024-03-08T05:08:16;4.5;61.3
81140;SHT31;70624;51.978;5.656;2024-03-08T05:10:45;4.5;61.4
81140;SHT31;70624;51.978;5.656;2024-03-08T05:13:14;4.5;61.3
81140;SHT31;70624;51.978;5.656;2024-03-08T05:15:42;4.5;61.2
81140;SHT31;70624;51.978;5.656;2024-03-08T05:18:11;4.5;61.1
81140;SHT31;70624;51.978;5.656;2024-03-08T05:20:40;4.5;61.1
81140;SHT31;70624;51.978;5.656;2024-03-08T05:23:09;4.5;61.0
81140;SHT31;70624;51.978;5.656;2024-03-08T05:25:38;4.5;61.1
81140;SHT31;70624;51.978;5.656;2024-03-08T05:28:07;4.5;61.2
81140;SHT31;70624;51.978;5.656;2024-03-08T05:30:38;4.5;61.0
81140;SHT31;70624;51.978;5.656;2024-03-08T05:33:07;4.5;60.9
81140;SHT31;70624;51.978;5.656;2024-03-08T05:35:36;4.5;61.0
81140;SHT31;70624;51.978;5.656;2024-03-08T05:38:05;4.5;60.9
81140;SHT31;70624;51.978;5.656;2024-03-08T05:40:34;4.5;61.1
81140;SHT31;70624;51.978;5.656;2024-03-08T05:43:03;4.5;61.0
81140;SHT31;70624;51.978;5.656;2024-03-08T05:45:33;4.5;61.2
81140;SHT31;70624;51.978;5.656;2024-03-08T05:48:02;4.5;61.1
81140;SHT31;70624;51.978;5.656;2024-03-08T05:50:30;4.4;60.9
81140;SHT31;70624;51.978;5.656;2024-03-08T05:52:58;4.4;61.2
81140;SHT31;70624;51.978;5.656;2024-03-08T05:55:27;4.4;61.1
81140;SHT31;70624;51.978;5.656;2024-03-08T05:57:56;4.4;61.1
81140;SHT31;70624;51.978;5.656;2024-03-08T06:00:24;4.4;61.1
81140;SHT31;70624;51.978;5.656;2024-03-08T06:02:53;4.4;61.0
81140;SHT31;70624;51.978;5.656;2024-03-08T06:05:22;4.4;60.9
81140;SHT31;70624;51.978;5.656;2024-03-08T06:07:51;4.4;61.3
81140;SHT31;70624;51.978;5.656;2024-03-08T06:10:22;4.4;61.0
81140;SHT31;70624;51.978;5.656;2024-03-08T06:12:50;4.4;61.0
81140;SHT31;70624;51.978;5.656;2024-03-08T06:15:19;4.4;61.2
81140;SHT31;70624;51.978;5.656;2024-03-08T06:17:47;4.4;61.1
81140;SHT31;70624;51.978;5.656;2024-03-08T06:20:15;4.4;61.3
81140;SHT31;70624;51.978;5.656;2024-03-08T06:22:44;4.4;60.9
81140;SHT31;70624;51.978;5.656;2024-03-08T06:25:12;4.4;61.1
81140;SHT31;70624;51.978;5.656;2024-03-08T06:27:42;4.4;60.9
81140;SHT31;70624;51.978;5.656;2024-03-08T06:30:13;4.4;61.0
81140;SHT31;70624;51.978;5.656;2024-03-08T06:32:44;4.4;61.0
81140;SHT31;70624;51.978;5.656;2024-03-08T06:35:12;4.4;61.2
81140;SHT31;70624;51.978;5.656;2024-03-08T06:37:42;4.4;61.1
81140;SHT31;70624;51.978;5.656;2024-03-08T06:40:12;4.4;61.1
81140;SHT31;70624;51.978;5.656;2024-03-08T06:42:42;4.4;61.1
81140;SHT31;70624;51.978;5.656;2024-03-08T06:45:11;4.4;61.2
81140;SHT31;70624;51.978;5.656;2024-03-08T06:47:45;4.5;61.3
81140;SHT31;70624;51.978;5.656;2024-03-08T06:50:14;4.5;61.3
81140;SHT31;70624;51.978;5.656;2024-03-08T06:52:43;4.5;61.1
81140;SHT31;70624;51.978;5.656;2024-03-08T06:55:17;4.5;60.7
81140;SHT31;70624;51.978;5.656;2024-03-08T06:57:45;4.6;60.9
81140;SHT31;70624;51.978;5.656;2024-03-08T07:00:14;4.6;60.9
81140;SHT31;70624;51.978;5.656;2024-03-08T07:02:44;4.6;60.7
81140;SHT31;70624;51.978;5.656;2024-03-08T07:05:15;4.7;60.4
81140;SHT31;70624;51.978;5.656;2024-03-08T07:07:43;4.7;59.9
81140;SHT31;70624;51.978;5.656;2024-03-08T07:10:14;4.8;60.1
81140;SHT31;70624;51.978;5.656;2024-03-08T07:12:43;4.8;60.2
81140;SHT31;70624;51.978;5.656;2024-03-08T07:15:12;4.9;60.3
81140;SHT31;70624;51.978;5.656;2024-03-08T07:17:42;4.9;59.7
81140;SHT31;70624;51.978;5.656;2024-03-08T07:20:12;4.9;59.8
81140;SHT31;70624;51.978;5.656;2024-03-08T07:22:45;5.0;59.6
81140;SHT31;70624;51.978;5.656;2024-03-08T07:25:14;5.0;59.4
81140;SHT31;70624;51.978;5.656;2024-03-08T07:27:48;5.1;59.9
81140;SHT31;70624;51.978;5.656;2024-03-08T07:30:17;5.1;59.4
81140;SHT31;70624;51.978;5.656;2024-03-08T07:33:18;5.2;59.2
81140;SHT31;70624;51.978;5.656;2024-03-08T07:35:49;5.3;59.1
81140;SHT31;70624;51.978;5.656;2024-03-08T07:38:17;5.4;58.7
81140;SHT31;70624;51.978;5.656;2024-03-08T07:40:47;5.5;58.8
81140;SHT31;70624;51.978;5.656;2024-03-08T07:43:16;5.5;59.0
81140;SHT31;70624;51.978;5.656;2024-03-08T07:45:44;5.6;58.0
81140;SHT31;70624;51.978;5.656;2024-03-08T07:48:13;5.7;57.7
81140;SHT31;70624;51.978;5.656;2024-03-08T07:50:42;5.8;57.1
81140;SHT31;70624;51.978;5.656;2024-03-08T07:53:11;5.8;57.7
81140;SHT31;70624;51.978;5.656;2024-03-08T07:55:39;5.9;57.0
81140;SHT31;70624;51.978;5.656;2024-03-08T07:58:08;6.0;57.5
81140;SHT31;70624;51.978;5.656;2024-03-08T08:00:37;6.1;56.6
81140;SHT31;70624;51.978;5.656;2024-03-08T08:03:05;6.2;56.7
81140;SHT31;70624;51.978;5.656;2024-03-08T08:05:35;6.2;56.0
81140;SHT31;70624;51.978;5.656;2024-03-08T08:08:05;6.3;56.0
81140;SHT31;70624;51.978;5.656;2024-03-08T08:10:36;6.4;55.8
81140;SHT31;70624;51.978;5.656;2024-03-08T08:13:05;6.4;55.8
81140;SHT31;70624;51.978;5.656;2024-03-08T08:15:34;6.5;55.9
81140;SHT31;70624;51.978;5.656;2024-03-08T08:18:02;6.6;55.4
81140;SHT31;70624;51.978;5.656;2024-03-08T08:20:31;6.7;55.5
81140;SHT31;70624;51.978;5.656;2024-03-08T08:23:00;6.7;55.4
81140;SHT31;70624;51.978;5.656;2024-03-08T08:25:29;6.8;54.9
81140;SHT31;70624;51.978;5.656;2024-03-08T08:28:00;6.9;55.0
81140;SHT31;70624;51.978;5.656;2024-03-08T08:30:30;7.0;54.8
81140;SHT31;70624;51.978;5.656;2024-03-08T08:32:59;7.1;54.8
81140;SHT31;70624;51.978;5.656;2024-03-08T08:35:28;7.1;54.2
81140;SHT31;70624;51.978;5.656;2024-03-08T08:37:56;7.2;54.3
81140;SHT31;70624;51.978;5.656;2024-03-08T08:40:25;7.3;54.9
81140;SHT31;70624;51.978;5.656;2024-03-08T08:42:54;7.4;54.7
81140;SHT31;70624;51.978;5.656;2024-03-08T08:45:24;7.5;54.0
81140;SHT31;70624;51.978;5.656;2024-03-08T08:47:52;7.6;54.5
81140;SHT31;70624;51.978;5.656;2024-03-08T08:50:20;7.7;52.8
81140;SHT31;70624;51.978;5.656;2024-03-08T08:52:51;7.8;53.7
81140;SHT31;70624;51.978;5.656;2024-03-08T08:55:22;7.9;53.1
81140;SHT31;70624;51.978;5.656;2024-03-08T08:57:52;8.0;52.7
81140;SHT31;70624;51.978;5.656;2024-03-08T09:00:22;8.0;52.8
81140;SHT31;70624;51.978;5.656;2024-03-08T09:02:53;8.1;52.7
81140;SHT31;70624;51.978;5.656;2024-03-08T09:05:24;8.2;52.1
81140;SHT31;70624;51.978;5.656;2024-03-08T09:07:52;8.3;52.3
81140;SHT31;70624;51.978;5.656;2024-03-08T09:10:21;8.4;52.3
81140;SHT31;70624;51.978;5.656;2024-03-08T09:12:49;8.5;51.3
81140;SHT31;70624;51.978;5.656;2024-03-08T09:15:19;8.6;51.8
81140;SHT31;70624;51.978;5.656;2024-03-08T09:17:48;8.6;51.3
81140;SHT31;70624;51.978;5.656;2024-03-08T09:20:17;8.7;51.1
81140;SHT31;70624;51.978;5.656;2024-03-08T09:22:47;8.8;50.8
81140;SHT31;70624;51.978;5.656;2024-03-08T09:25:15;8.8;50.4
81140;SHT31;70624;51.978;5.656;2024-03-08T09:27:43;8.9;51.0
81140;SHT31;70624;51.978;5.656;2024-03-08T09:30:13;8.9;51.2
81140;SHT31;70624;51.978;5.656;2024-03-08T09:32:41;9.0;50.8
81140;SHT31;70624;51.978;5.656;2024-03-08T09:35:10;9.1;51.0
81140;SHT31;70624;51.978;5.656;2024-03-08T09:37:38;9.1;51.5
81140;SHT31;70624;51.978;5.656;2024-03-08T09:40:07;9.2;51.4
81140;SHT31;70624;51.978;5.656;2024-03-08T09:42:42;9.3;50.4
81140;SHT31;70624;51.978;5.656;2024-03-08T09:45:12;9.4;50.6
81140;SHT31;70624;51.978;5.656;2024-03-08T09:47:42;9.4;50.3
81140;SHT31;70624;51.978;5.656;2024-03-08T09:50:12;9.5;50.4
81140;SHT31;70624;51.978;5.656;2024-03-08T09:52:41;9.5;50.0
81140;SHT31;70624;51.978;5.656;2024-03-08T09:55:10;9.6;50.4
81140;SHT31;70624;51.978;5.656;2024-03-08T09:57:40;9.7;49.9
81140;SHT31;70624;51.978;5.656;2024-03-08T10:00:12;9.7;49.7
81140;SHT31;70624;51.978;5.656;2024-03-08T10:02:50;9.8;49.3
81140;SHT31;70624;51.978;5.656;2024-03-08T10:05:22;9.9;49.7
81140;SHT31;70624;51.978;5.656;2024-03-08T10:07:50;9.9;49.4
81140;SHT31;70624;51.978;5.656;2024-03-08T10:10:19;10.0;48.7
81140;SHT31;70624;51.978;5.656;2024-03-08T10:12:50;10.1;49.1
81140;SHT31;70624;51.978;5.656;2024-03-08T10:15:19;10.1;48.6
81140;SHT31;70624;51.978;5.656;2024-03-08T10:17:50;10.2;48.8
81140;SHT31;70624;51.978;5.656;2024-03-08T10:20:19;10.2;48.6
81140;SHT31;70624;51.978;5.656;2024-03-08T10:22:48;10.2;49.1
81140;SHT31;70624;51.978;5.656;2024-03-08T10:25:18;10.3;49.1
81140;SHT31;70624;51.978;5.656;2024-03-08T10:27:46;10.4;48.1
81140;SHT31;70624;51.978;5.656;2024-03-08T10:30:16;10.4;48.2
81140;SHT31;70624;51.978;5.656;2024-03-08T10:32:49;10.5;47.8
81140;SHT31;70624;51.978;5.656;2024-03-08T10:35:18;10.5;47.7
81140;SHT31;70624;51.978;5.656;2024-03-08T10:37:49;10.6;47.7
81140;SHT31;70624;51.978;5.656;2024-03-08T10:40:24;10.6;47.3
81140;SHT31;70624;51.978;5.656;2024-03-08T10:42:55;10.7;48.1
81140;SHT31;70624;51.978;5.656;2024-03-08T10:45:34;10.8;48.8
81140;SHT31;70624;51.978;5.656;2024-03-08T10:48:14;10.9;47.1
81140;SHT31;70624;51.978;5.656;2024-03-08T10:50:44;11.0;46.8
81140;SHT31;70624;51.978;5.656;2024-03-08T10:53:18;11.1;46.8
81140;SHT31;70624;51.978;5.656;2024-03-08T10:55:51;11.1;47.1
81140;SHT31;70624;51.978;5.656;2024-03-08T10:58:22;11.2;47.4
81140;SHT31;70624;51.978;5.656;2024-03-08T11:00:53;11.3;46.1
81140;SHT31;70624;51.978;5.656;2024-03-08T11:03:46;11.3;46.4
81140;SHT31;70624;51.978;5.656;2024-03-08T11:06:19;11.4;46.4
81140;SHT31;70624;51.978;5.656;2024-03-08T11:08:50;11.4;46.0
81140;SHT31;70624;51.978;5.656;2024-03-08T11:11:30;11.5;45.5
81140;SHT31;70624;51.978;5.656;2024-03-08T11:13:59;11.5;45.4
81140;SHT31;70624;51.978;5.656;2024-03-08T11:16:44;11.5;45.5
81140;SHT31;70624;51.978;5.656;2024-03-08T11:19:34;11.5;46.0
81140;SHT31;70624;51.978;5.656;2024-03-08T11:22:03;11.6;45.8
81140;SHT31;70624;51.978;5.656;2024-03-08T11:24:40;11.6;45.4
81140;SHT31;70624;51.978;5.656;2024-03-08T11:27:09;11.6;44.9
81140;SHT31;70624;51.978;5.656;2024-03-08T11:29:39;11.6;45.2
81140;SHT31;70624;51.978;5.656;2024-03-08T11:32:12;11.6;44.9
81140;SHT31;70624;51.978;5.656;2024-03-08T11:34:45;11.6;45.2
81140;SHT31;70624;51.978;5.656;2024-03-08T11:37:15;11.6;45.8
81140;SHT31;70624;51.978;5.656;2024-03-08T11:39:51;11.6;45.5
81140;SHT31;70624;51.978;5.656;2024-03-08T11:42:25;11.6;45.2
81140;SHT31;70624;51.978;5.656;2024-03-08T11:44:54;11.6;44.8
81140;SHT31;70624;51.978;5.656;2024-03-08T11:47:23;11.6;45.1
81140;SHT31;70624;51.978;5.656;2024-03-08T11:49:52;11.6;44.5
81140;SHT31;70624;51.978;5.656;2024-03-08T11:52:21;11.6;44.5
81140;SHT31;70624;51.978;5.656;2024-03-08T11:54:54;11.6;44.2
81140;SHT31;70624;51.978;5.656;2024-03-08T11:57:24;11.6;43.9
81140;SHT31;70624;51.978;5.656;2024-03-08T11:59:54;11.6;44.4
81140;SHT31;70624;51.978;5.656;2024-03-08T12:02:24;11.6;44.7
81140;SHT31;70624;51.978;5.656;2024-03-08T12:04:58;11.6;44.7
81140;SHT31;70624;51.978;5.656;2024-03-08T12:07:30;11.6;44.3
81140;SHT31;70624;51.978;5.656;2024-03-08T12:10:18;11.6;44.0
81140;SHT31;70624;51.978;5.656;2024-03-08T12:12:49;11.6;43.6
81140;SHT31;70624;51.978;5.656;2024-03-08T12:15:20;11.6;43.7
81140;SHT31;70624;51.978;5.656;2024-03-08T12:17:50;11.6;43.3
81140;SHT31;70624;51.978;5.656;2024-03-08T12:20:21;11.6;43.3
81140;SHT31;70624;51.978;5.656;2024-03-08T12:22:51;11.6;43.3
81140;SHT31;70624;51.978;5.656;2024-03-08T12:25:26;11.6;43.3
81140;SHT31;70624;51.978;5.656;2024-03-08T12:28:11;11.6;43.2
81140;SHT31;70624;51.978;5.656;2024-03-08T12:30:46;11.6;43.1
81140;SHT31;70624;51.978;5.656;2024-03-08T12:33:15;11.6;43.4
81140;SHT31;70624;51.978;5.656;2024-03-08T12:35:53;11.6;43.9
81140;SHT31;70624;51.978;5.656;2024-03-08T12:38:27;11.6;43.8
81140;SHT31;70624;51.978;5.656;2024-03-08T12:40:58;11.6;43.5
81140;SHT31;70624;51.978;5.656;2024-03-08T12:43:27;11.6;43.5
81140;SHT31;70624;51.978;5.656;2024-03-08T12:45:56;11.6;44.0
81140;SHT31;70624;51.978;5.656;2024-03-08T12:48:25;11.6;44.3
81140;SHT31;70624;51.978;5.656;2024-03-08T12:50:53;11.5;44.2
81140;SHT31;70624;51.978;5.656;2024-03-08T12:53:21;11.5;43.7
81140;SHT31;70624;51.978;5.656;2024-03-08T12:55:55;11.5;43.8
81140;SHT31;70624;51.978;5.656;2024-03-08T12:58:24;11.5;43.9
81140;SHT31;70624;51.978;5.656;2024-03-08T13:00:54;11.5;44.0
81140;SHT31;70624;51.978;5.656;2024-03-08T13:03:22;11.6;44.4
81140;SHT31;70624;51.978;5.656;2024-03-08T13:05:51;11.6;44.2
81140;SHT31;70624;51.978;5.656;2024-03-08T13:08:20;11.5;44.2
81140;SHT31;70624;51.978;5.656;2024-03-08T13:10:51;11.5;44.3
81140;SHT31;70624;51.978;5.656;2024-03-08T13:13:20;11.5;44.0
81140;SHT31;70624;51.978;5.656;2024-03-08T13:15:49;11.5;43.6
81140;SHT31;70624;51.978;5.656;2024-03-08T13:18:17;11.5;44.3
81140;SHT31;70624;51.978;5.656;2024-03-08T13:20:45;11.5;44.3
81140;SHT31;70624;51.978;5.656;2024-03-08T13:23:16;11.5;44.3
81140;SHT31;70624;51.978;5.656;2024-03-08T13:25:44;11.5;44.2
81140;SHT31;70624;51.978;5.656;2024-03-08T13:28:15;11.5;44.4
81140;SHT31;70624;51.978;5.656;2024-03-08T13:30:49;11.5;44.6
81140;SHT31;70624;51.978;5.656;2024-03-08T13:33:17;11.5;44.3
81140;SHT31;70624;51.978;5.656;2024-03-08T13:35:46;11.5;44.1
81140;SHT31;70624;51.978;5.656;2024-03-08T13:38:16;11.5;44.7
81140;SHT31;70624;51.978;5.656;2024-03-08T13:40:46;11.5;45.0
81140;SHT31;70624;51.978;5.656;2024-03-08T13:43:16;11.5;45.0
81140;SHT31;70624;51.978;5.656;2024-03-08T13:45:44;11.5;45.5
81140;SHT31;70624;51.978;5.656;2024-03-08T13:48:14;11.6;45.6
81140;SHT31;70624;51.978;5.656;2024-03-08T13:50:42;11.6;44.6
81140;SHT31;70624;51.978;5.656;2024-03-08T13:53:11;11.6;45.0
81140;SHT31;70624;51.978;5.656;2024-03-08T13:55:41;11.6;44.9
81140;SHT31;70624;51.978;5.656;2024-03-08T13:58:10;11.7;45.2
81140;SHT31;70624;51.978;5.656;2024-03-08T14:00:40;11.7;44.6
81140;SHT31;70624;51.978;5.656;2024-03-08T14:03:10;11.7;44.4
81140;SHT31;70624;51.978;5.656;2024-03-08T14:05:40;11.7;44.0
81140;SHT31;70624;51.978;5.656;2024-03-08T14:08:09;11.7;44.1
81140;SHT31;70624;51.978;5.656;2024-03-08T14:10:38;11.7;44.4
81140;SHT31;70624;51.978;5.656;2024-03-08T14:13:08;11.6;44.7
81140;SHT31;70624;51.978;5.656;2024-03-08T14:15:38;11.6;44.5
81140;SHT31;70624;51.978;5.656;2024-03-08T14:18:08;11.6;44.9
81140;SHT31;70624;51.978;5.656;2024-03-08T14:20:39;11.6;45.0
81140;SHT31;70624;51.978;5.656;2024-03-08T14:23:08;11.6;44.4
81140;SHT31;70624;51.978;5.656;2024-03-08T14:25:39;11.6;44.8
81140;SHT31;70624;51.978;5.656;2024-03-08T14:28:07;11.6;44.9
81140;SHT31;70624;51.978;5.656;2024-03-08T14:30:36;11.6;45.2
81140;SHT31;70624;51.978;5.656;2024-03-08T14:33:09;11.6;45.1
81140;SHT31;70624;51.978;5.656;2024-03-08T14:35:40;11.6;44.8
81140;SHT31;70624;51.978;5.656;2024-03-08T14:38:09;11.6;45.2
81140;SHT31;70624;51.978;5.656;2024-03-08T14:40:39;11.6;44.9
81140;SHT31;70624;51.978;5.656;2024-03-08T14:43:13;11.6;44.6
81140;SHT31;70624;51.978;5.656;2024-03-08T14:45:43;11.7;44.6
81140;SHT31;70624;51.978;5.656;2024-03-08T14:48:13;11.6;44.3
81140;SHT31;70624;51.978;5.656;2024-03-08T14:50:42;11.6;44.8
81140;SHT31;70624;51.978;5.656;2024-03-08T14:53:13;11.6;45.0
81140;SHT31;70624;51.978;5.656;2024-03-08T14:55:43;11.6;45.1
81140;SHT31;70624;51.978;5.656;2024-03-08T14:58:13;11.6;45.2
81140;SHT31;70624;51.978;5.656;2024-03-08T15:00:42;11.6;45.1
81140;SHT31;70624;51.978;5.656;2024-03-08T15:03:10;11.6;45.2
81140;SHT31;70624;51.978;5.656;2024-03-08T15:05:42;11.6;44.9
81140;SHT31;70624;51.978;5.656;2024-03-08T15:08:14;11.6;45.3
81140;SHT31;70624;51.978;5.656;2024-03-08T15:10:49;11.6;44.9
81140;SHT31;70624;51.978;5.656;2024-03-08T15:13:20;11.6;44.6
81140;SHT31;70624;51.978;5.656;2024-03-08T15:15:54;11.6;44.4
81140;SHT31;70624;51.978;5.656;2024-03-08T15:18:24;11.6;45.0
81140;SHT31;70624;51.978;5.656;2024-03-08T15:20:57;11.6;45.0
81140;SHT31;70624;51.978;5.656;2024-03-08T15:23:25;11.6;44.9
81140;SHT31;70624;51.978;5.656;2024-03-08T15:25:54;11.6;45.0
81140;SHT31;70624;51.978;5.656;2024-03-08T15:28:22;11.6;45.2
81140;SHT31;70624;51.978;5.656;2024-03-08T15:30:55;11.6;45.4
81140;SHT31;70624;51.978;5.656;2024-03-08T15:33:29;11.6;45.4
81140;SHT31;70624;51.978;5.656;2024-03-08T15:35:57;11.6;45.6
81140;SHT31;70624;51.978;5.656;2024-03-08T15:38:29;11.5;45.7
81140;SHT31;70624;51.978;5.656;2024-03-08T15:40:58;11.5;45.9
81140;SHT31;70624;51.978;5.656;2024-03-08T15:43:26;11.5;45.5
81140;SHT31;70624;51.978;5.656;2024-03-08T15:45:56;11.5;45.6
81140;SHT31;70624;51.978;5.656;2024-03-08T15:48:27;11.5;45.6
81140;SHT31;70624;51.978;5.656;2024-03-08T15:50:57;11.5;45.6
81140;SHT31;70624;51.978;5.656;2024-03-08T15:53:28;11.5;45.5
81140;SHT31;70624;51.978;5.656;2024-03-08T15:55:58;11.5;45.0
81140;SHT31;70624;51.978;5.656;2024-03-08T15:58:27;11.5;45.2
81140;SHT31;70624;51.978;5.656;2024-03-08T16:00:56;11.5;45.4
81140;SHT31;70624;51.978;5.656;2024-03-08T16:03:27;11.5;45.1
81140;SHT31;70624;51.978;5.656;2024-03-08T16:05:56;11.5;45.3
81140;SHT31;70624;51.978;5.656;2024-03-08T16:08:28;11.4;45.1
81140;SHT31;70624;51.978;5.656;2024-03-08T16:10:56;11.4;44.7
81140;SHT31;70624;51.978;5.656;2024-03-08T16:13:26;11.4;45.1
81140;SHT31;70624;51.978;5.656;2024-03-08T16:15:56;11.4;45.4
81140;SHT31;70624;51.978;5.656;2024-03-08T16:18:25;11.4;45.4
81140;SHT31;70624;51.978;5.656;2024-03-08T16:20:55;11.4;45.6
81140;SHT31;70624;51.978;5.656;2024-03-08T16:23:24;11.3;45.4
81140;SHT31;70624;51.978;5.656;2024-03-08T16:25:53;11.3;45.2
81140;SHT31;70624;51.978;5.656;2024-03-08T16:28:21;11.3;45.3